Time;durP1;ratioP1;P1;durP2;ratioP2;P2;SDS_P1;SDS_P2;PMS_P1;PMS_P2;Temp;Humidity;BMP_temperature;BMP_pressure;BME280_temperature;BME280_humidity;BME280_pressure;Samples;Min_cycle;Max_cycle;Signal;HPM_P1;HPM_P2
2024/02/11 00:09:56;;;;;;;42.00;29.60;;;;;;;6.37;100.00;97412.21;437516;1262;140910;-52
2024/02/11 00:20:02;;;;;;;41.20;30.30;;;;;;;6.37;100.00;97410.67;436522;1260;139647;-52
2024/02/11 00:30:10;;;;;;;34.50;25.20;;;;;;;6.37;100.00;97399.89;437951;1262;140189;-59
2024/02/11 00:40:17;;;;;;;36.90;26.40;;;;;;;6.35;100.00;97396.86;438984;1262;139984;-59
2024/02/11 00:50:25;;;;;;;40.70;27.90;;;;;;;6.37;100.00;97402.51;442836;1258;139649;-60
2024/02/11 01:00:33;;;;;;;37.60;24.80;;;;;;;6.38;100.00;97392.71;436773;1260;139800;-60
2024/02/11 01:10:39;;;;;;;38.60;27.30;;;;;;;6.39;100.00;97379.57;438491;1262;139958;-60
2024/02/11 01:20:48;;;;;;;35.30;27.80;;;;;;;6.40;100.00;97385.59;435216;1262;139776;-61
2024/02/11 01:30:54;;;;;;;36.00;26.80;;;;;;;6.40;100.00;97378.56;436378;1262;141173;-61
2024/02/11 01:41:00;;;;;;;36.10;26.40;;;;;;;6.41;100.00;97375.77;434988;1263;140109;-50
2024/02/11 01:51:07;;;;;;;36.20;24.30;;;;;;;6.40;100.00;97369.92;435393;1262;139573;-59
2024/02/11 02:01:15;;;;;;;34.00;25.40;;;;;;;6.39;100.00;97379.40;437915;1262;141207;-60
2024/02/11 02:11:23;;;;;;;29.70;22.80;;;;;;;6.37;100.00;97379.70;434963;1264;140035;-60
2024/02/11 02:21:29;;;;;;;33.10;25.70;;;;;;;6.34;100.00;97380.30;435212;1262;140422;-61
2024/02/11 02:31:36;;;;;;;32.00;24.60;;;;;;;6.30;100.00;97380.06;440420;1259;140101;-60
2024/02/11 02:41:44;;;;;;;30.60;22.60;;;;;;;6.29;100.00;97376.34;436217;1263;140521;-51
2024/02/11 02:51:52;;;;;;;28.60;21.30;;;;;;;6.31;100.00;97379.00;438415;1262;139456;-53
2024/02/11 03:02:01;;;;;;;28.10;22.90;;;;;;;6.30;100.00;97372.92;436301;1263;139619;-54
2024/02/11 03:12:08;;;;;;;30.00;20.80;;;;;;;6.30;100.00;97374.38;435071;1263;139908;-52
2024/02/11 03:22:16;;;;;;;26.50;21.50;;;;;;;6.28;100.00;97375.05;435660;1263;140196;-59
2024/02/11 03:32:22;;;;;;;30.70;22.10;;;;;;;6.26;100.00;97368.75;434699;1264;140036;-59
2024/02/11 03:42:30;;;;;;;27.40;21.40;;;;;;;6.27;100.00;97363.68;449442;1260;140217;-60
2024/02/11 03:52:36;;;;;;;23.90;18.60;;;;;;;6.31;100.00;97355.90;444873;1262;140237;-59
2024/02/11 04:02:43;;;;;;;29.60;20.70;;;;;;;6.36;100.00;97347.69;439095;1260;139475;-59
2024/02/11 04:12:52;;;;;;;23.90;19.00;;;;;;;6.41;100.00;97340.08;434714;1260;139574;-50
2024/02/11 04:23:00;;;;;;;29.20;21.50;;;;;;;6.43;100.00;97343.05;447762;1259;140104;-59
2024/02/11 04:33:07;;;;;;;24.60;18.70;;;;;;;6.42;100.00;97338.96;449508;1257;140605;-53
2024/02/11 04:43:13;;;;;;;;;;;;;;;6.41;100.00;97331.77;441678;1260;139905;-54
2024/02/11 04:53:21;;;;;;;19.20;16.20;;;;;;;6.41;100.00;97323.23;436200;1262;126014;-61
2024/02/11 05:03:27;;;;;;;24.90;17.70;;;;;;;6.45;100.00;97311.83;435073;1264;139566;-61
2024/02/11 05:13:34;;;;;;;22.10;17.90;;;;;;;6.49;100.00;97303.98;435650;1260;140330;-60
2024/02/11 05:23:41;;;;;;;25.10;21.00;;;;;;;6.53;100.00;97311.33;448087;1259;139646;-59
2024/02/11 05:33:51;;;;;;;28.30;21.80;;;;;;;6.49;100.00;97312.88;436970;1259;140217;-62
2024/02/11 05:43:57;;;;;;;27.00;20.10;;;;;;;6.42;100.00;97312.89;438435;1261;140631;-60
2024/02/11 05:54:04;;;;;;;21.60;18.70;;;;;;;6.36;100.00;97310.45;439107;1259;139417;-59
2024/02/11 06:04:10;;;;;;;23.50;19.90;;;;;;;6.34;100.00;97304.02;444048;1259;139578;-60
2024/02/11 06:14:17;;;;;;;25.90;20.20;;;;;;;6.35;100.00;97307.71;435211;1263;139391;-50
2024/02/11 06:24:24;;;;;;;24.60;20.40;;;;;;;6.35;100.00;97305.33;434779;1260;140042;-53
2024/02/11 06:34:30;;;;;;;27.20;20.10;;;;;;;6.35;100.00;97304.61;434879;1263;139690;-59
2024/02/11 06:44:38;;;;;;;28.80;21.00;;;;;;;6.39;100.00;97300.13;431312;1263;5085678;-60
2024/02/11 06:54:49;;;;;;;28.20;21.10;;;;;;;6.41;100.00;97294.41;443013;1259;140220;-59
2024/02/11 07:04:55;;;;;;;27.20;17.60;;;;;;;6.49;100.00;97296.20;440426;1259;139704;-60
2024/02/11 07:15:04;;;;;;;24.00;20.10;;;;;;;6.62;100.00;97291.45;435742;1261;140355;-61
2024/02/11 07:25:12;;;;;;;24.70;17.80;;;;;;;6.72;100.00;97285.72;436429;1262;139621;-58
2024/02/11 07:35:23;;;;;;;21.10;18.40;;;;;;;6.87;100.00;97283.80;437593;1262;139645;-60
2024/02/11 07:45:29;;;;;;;26.10;20.20;;;;;;;7.09;100.00;97279.64;435104;1260;139714;-52
2024/02/11 07:55:35;;;;;;;24.20;17.70;;;;;;;7.36;100.00;97278.89;434594;1260;140074;-50
2024/02/11 08:05:44;;;;;;;24.70;19.00;;;;;;;7.59;100.00;97285.41;441870;1259;140452;-59
2024/02/11 08:15:53;;;;;;;22.70;18.50;;;;;;;7.66;100.00;97293.70;435675;1263;140509;-59
2024/02/11 08:25:59;;;;;;;22.90;18.40;;;;;;;7.64;100.00;97291.73;436893;1260;140283;-62
2024/02/11 08:36:08;;;;;;;26.20;21.20;;;;;;;7.64;100.00;97288.61;437300;1259;139644;-62
2024/02/11 08:46:13;;;;;;;;;;;;;;;7.65;100.00;97284.71;439113;1259;140195;-62
2024/02/11 08:56:21;;;;;;;25.40;19.00;;;;;;;7.64;100.00;97288.12;435486;1262;125507;-60
2024/02/11 09:06:28;;;;;;;28.10;21.50;;;;;;;7.63;100.00;97285.55;434857;1262;140460;-62
2024/02/11 09:16:35;;;;;;;22.50;19.30;;;;;;;7.63;100.00;97282.09;435137;1259;140059;-61
2024/02/11 09:26:42;;;;;;;22.70;16.90;;;;;;;7.67;100.00;97280.40;435021;1259;140382;-64
2024/02/11 09:36:48;;;;;;;24.00;19.90;;;;;;;7.76;100.00;97284.27;446471;1259;139818;-63
2024/02/11 09:46:59;;;;;;;24.60;19.00;;;;;;;7.94;100.00;97281.77;436260;1260;139759;-53
2024/02/11 09:57:06;;;;;;;23.00;19.70;;;;;;;8.16;100.00;97277.52;437100;1259;139527;-63
2024/02/11 10:07:22;;;;;;;23.40;19.90;;;;;;;8.42;100.00;97271.37;441616;1259;140178;-64
2024/02/11 10:17:31;;;;;;;21.40;19.00;;;;;;;8.49;100.00;97262.56;446233;1259;139308;-62
2024/02/11 10:27:42;;;;;;;23.00;18.60;;;;;;;8.61;100.00;97257.41;448338;1259;141493;-62
2024/02/11 10:37:49;;;;;;;21.30;17.60;;;;;;;8.62;100.00;97247.25;436484;1260;140007;-62
2024/02/11 10:48:02;;;;;;;23.40;17.30;;;;;;;8.54;100.00;97243.79;435219;1262;140412;-61
2024/02/11 10:58:12;;;;;;;25.30;16.80;;;;;;;8.48;100.00;97228.95;449665;1259;139973;-62
2024/02/11 11:08:19;;;;;;;21.00;16.10;;;;;;;8.57;100.00;97228.20;439335;1259;139663;-63
2024/02/11 11:18:26;;;;;;;25.40;17.00;;;;;;;8.59;100.00;97220.00;435330;1260;139700;-54
2024/02/11 11:28:32;;;;;;;18.80;16.70;;;;;;;8.49;100.00;97212.15;437685;1259;139971;-53
2024/02/11 11:38:39;;;;;;;26.30;17.90;;;;;;;8.36;100.00;97215.95;436887;1260;139523;-63
2024/02/11 11:48:45;;;;;;;20.40;16.80;;;;;;;8.22;100.00;97218.06;439166;1258;139516;-62
2024/02/11 11:59:02;;;;;;;20.70;17.10;;;;;;;8.14;100.00;97215.55;437842;1259;139984;-62
2024/02/11 12:09:09;;;;;;;22.90;18.70;;;;;;;8.17;100.00;97200.98;435259;1260;139571;-58
2024/02/11 12:19:14;;;;;;;;;;;;;;;8.29;100.00;97196.36;435543;1261;139148;-65
2024/02/11 12:29:27;;;;;;;24.00;18.10;;;;;;;8.41;100.00;97186.17;435088;1262;126078;-64
2024/02/11 12:39:38;;;;;;;21.10;17.20;;;;;;;8.48;100.00;97174.96;441258;1259;139476;-63
2024/02/11 12:49:44;;;;;;;24.10;19.10;;;;;;;8.53;100.00;97167.30;434665;1259;140084;-58
2024/02/11 12:59:50;;;;;;;22.60;19.00;;;;;;;8.57;100.00;97165.19;439159;1262;140237;-66
2024/02/11 13:09:56;;;;;;;22.30;18.80;;;;;;;8.68;100.00;97162.10;438103;1262;139775;-63
2024/02/11 13:20:05;;;;;;;17.30;14.40;;;;;;;8.93;100.00;97166.50;434894;1259;140062;-58
2024/02/11 13:30:14;;;;;;;17.20;15.20;;;;;;;9.19;100.00;97163.38;446538;1259;139648;-58
2024/02/11 13:40:20;;;;;;;18.70;13.40;;;;;;;9.30;100.00;97166.88;439699;1259;139767;-58
2024/02/11 13:50:29;;;;;;;10.80;9.80;;;;;;;9.31;100.00;97161.49;435904;1260;140551;-62
2024/02/11 14:00:37;;;;;;;10.70;9.70;;;;;;;9.26;100.00;97163.04;449609;1261;140417;-63
2024/02/11 14:10:44;;;;;;;10.00;9.00;;;;;;;9.13;100.00;97163.94;449573;1260;139851;-59
2024/02/11 14:20:53;;;;;;;11.20;9.70;;;;;;;9.01;100.00;97163.19;441502;1261;139873;-58
2024/02/11 14:31:00;;;;;;;11.80;10.60;;;;;;;8.94;100.00;97157.90;436995;1259;139721;-59
2024/02/11 14:41:08;;;;;;;;;;;;;;;8.86;100.00;97160.10;436641;1262;140401;-59
2024/02/11 14:51:15;;;;;;;14.00;9.70;;;;;;;8.77;100.00;97159.91;435755;1260;126318;-59
2024/02/11 15:01:22;;;;;;;15.80;10.40;;;;;;;8.64;100.00;97161.02;436674;1262;139652;-62
2024/02/11 15:11:29;;;;;;;13.20;10.50;;;;;;;8.52;100.00;97163.45;438094;1259;139831;-63
2024/02/11 15:21:37;;;;;;;11.30;10.10;;;;;;;8.41;100.00;97156.60;435441;1262;139577;-58
2024/02/11 15:31:44;;;;;;;12.90;10.00;;;;;;;8.31;100.00;97159.27;435223;1260;139798;-62
2024/02/11 15:41:52;;;;;;;12.30;10.40;;;;;;;8.21;100.00;97161.17;449488;1258;139556;-58
2024/02/11 15:51:58;;;;;;;12.20;10.90;;;;;;;8.13;100.00;97165.77;443390;1259;139804;-62
2024/02/11 16:02:06;;;;;;;12.60;10.70;;;;;;;8.07;100.00;97165.13;435816;1260;139831;-59
2024/02/11 16:12:12;;;;;;;12.90;11.60;;;;;;;8.01;100.00;97167.80;440489;1260;140004;-64
2024/02/11 16:22:19;;;;;;;15.20;12.70;;;;;;;7.95;100.00;97174.41;436220;1260;140212;-64
2024/02/11 16:32:27;;;;;;;17.60;14.50;;;;;;;7.91;100.00;97182.27;449455;1258;141504;-64
2024/02/11 16:42:33;;;;;;;16.90;14.70;;;;;;;7.91;100.00;97182.45;438161;1260;139532;-61
2024/02/11 16:52:42;;;;;;;15.10;13.30;;;;;;;7.90;100.00;97183.44;434935;1262;140755;-61
2024/02/11 17:02:49;;;;;;;15.30;13.50;;;;;;;7.86;100.00;97183.91;438505;1260;140104;-58
2024/02/11 17:12:55;;;;;;;15.80;13.60;;;;;;;7.82;100.00;97186.23;442738;1262;139403;-57
2024/02/11 17:23:01;;;;;;;18.90;14.30;;;;;;;7.79;100.00;97181.59;441055;1260;139890;-61
2024/02/11 17:33:09;;;;;;;16.20;13.60;;;;;;;7.76;100.00;97182.20;435300;1260;140677;-61
2024/02/11 17:43:17;;;;;;;16.00;14.30;;;;;;;7.74;100.00;97179.07;435654;1262;140068;-61
2024/02/11 17:53:23;;;;;;;17.90;14.20;;;;;;;7.69;100.00;97175.64;435315;1262;139568;-62
2024/02/11 18:03:39;;;;;;;18.30;14.30;;;;;;;7.65;100.00;97173.48;436188;1262;140141;-61
2024/02/11 18:13:45;;;;;;;21.50;16.00;;;;;;;7.60;100.00;97181.92;435878;1260;140577;-63
2024/02/11 18:23:51;;;;;;;20.60;16.70;;;;;;;7.54;100.00;97177.75;439754;1261;140151;-62
2024/02/11 18:33:58;;;;;;;18.20;14.70;;;;;;;7.46;100.00;97176.70;435828;1262;141947;-58
2024/02/11 18:44:08;;;;;;;17.40;14.30;;;;;;;7.35;100.00;97179.37;435194;1260;5140943;-58
2024/02/11 18:54:15;;;;;;;18.10;13.90;;;;;;;7.34;100.00;97185.48;440846;1262;139975;-58
2024/02/11 19:04:21;;;;;;;19.20;15.20;;;;;;;7.33;100.00;97190.09;449430;1260;140413;-58
2024/02/11 19:14:28;;;;;;;17.70;15.20;;;;;;;7.37;100.00;97191.08;444689;1262;141910;-62
2024/02/11 19:24:34;;;;;;;17.00;15.20;;;;;;;7.40;100.00;97187.17;448887;1262;139310;-59
2024/02/11 19:34:40;;;;;;;20.20;16.00;;;;;;;7.42;100.00;97186.48;445332;1260;139929;-58
2024/02/11 19:44:47;;;;;;;18.40;16.50;;;;;;;7.42;100.00;97182.76;439485;1262;139844;-59
2024/02/11 19:54:53;;;;;;;19.40;15.80;;;;;;;7.43;100.00;97186.87;437030;1260;140138;-58
2024/02/11 20:04:59;;;;;;;22.70;18.30;;;;;;;7.41;100.00;97189.32;449400;1262;140265;-58
2024/02/11 20:15:12;;;;;;;20.50;16.60;;;;;;;7.42;100.00;97190.25;438882;1260;140069;-59
2024/02/11 20:25:20;;;;;;;20.10;16.90;;;;;;;7.45;100.00;97191.27;444868;1262;141110;-60
2024/02/11 20:35:25;;;;;;;;;;;;;;;7.49;100.00;97197.34;435638;1264;140161;-59
2024/02/11 20:45:35;;;;;;;17.70;15.50;;;;;;;7.52;100.00;97201.27;435274;1263;126593;-59
2024/02/11 20:55:42;;;;;;;16.70;14.40;;;;;;;7.53;100.00;97207.08;449022;1260;139990;-58
2024/02/11 21:05:48;;;;;;;14.60;13.00;;;;;;;7.55;100.00;97207.20;449172;1260;140219;-58
2024/02/11 21:15:54;;;;;;;14.80;13.20;;;;;;;7.57;100.00;97203.23;448987;1260;139801;-58
2024/02/11 21:26:00;;;;;;;16.80;14.50;;;;;;;7.57;100.00;97200.92;449185;1260;139459;-59
2024/02/11 21:36:06;;;;;;;16.80;14.70;;;;;;;7.57;100.00;97205.85;449380;1259;139706;-58
2024/02/11 21:46:15;;;;;;;19.10;15.60;;;;;;;7.59;100.00;97211.28;449277;1260;140156;-58
2024/02/11 21:56:22;;;;;;;22.60;17.00;;;;;;;7.60;100.00;97210.45;436302;1263;140403;-58
2024/02/11 22:06:28;;;;;;;20.10;16.80;;;;;;;7.60;100.00;97217.08;436697;1260;139824;-65
2024/02/11 22:16:34;;;;;;;16.80;14.90;;;;;;;7.60;100.00;97224.04;437175;1262;139715;-65
2024/02/11 22:26:41;;;;;;;17.50;15.50;;;;;;;7.60;100.00;97232.80;437177;1261;140270;-66
2024/02/11 22:36:47;;;;;;;17.30;14.50;;;;;;;7.59;100.00;97237.86;436956;1261;139651;-66
2024/02/11 22:46:53;;;;;;;16.80;15.00;;;;;;;7.58;100.00;97237.77;435990;1263;139760;-66
2024/02/11 22:57:00;;;;;;;16.90;14.10;;;;;;;7.59;100.00;97250.45;449354;1257;141463;-65
2024/02/11 23:07:06;;;;;;;14.90;13.40;;;;;;;7.59;100.00;97252.13;449305;1260;139910;-70
2024/02/11 23:17:12;;;;;;;21.70;18.10;;;;;;;7.62;100.00;97249.96;449432;1257;139809;-61
2024/02/11 23:27:19;;;;;;;17.90;15.10;;;;;;;7.67;100.00;97254.90;446425;1260;139355;-62
2024/02/11 23:37:25;;;;;;;17.10;15.20;;;;;;;7.74;100.00;97264.45;439729;1259;140644;-61
2024/02/11 23:47:31;;;;;;;18.50;14.00;;;;;;;7.78;100.00;97262.80;437888;1262;139940;-56
2024/02/11 23:57:40;;;;;;;14.90;13.40;;;;;;;7.81;100.00;97267.39;437123;1261;139838;-58
